Fort Mitchell, Alabama
Current Conditions -  °F | °C
As of 10:33 AM on Sunday 21 Dec 2014 (Local Time) from KLSF Reporting Station
Overcast Overcast  
Wind Chill: 52°   Ceiling: 700
Heat Index: 52°   Visibility: 10mi
Dew Point: 48°   Wind: 7mph
Humidity: 88%   Direction: 50°NE
Pressure: 30.15"   Gusts: NA
Location:  32.34°N, 85.02°W
Report Text: KLSF 211633Z AUTO 05006KT 10SM OVC007 11/09 A3015 RMK AO2
Loading
Personal Weather Stations






























Interactive Weather Map New forecast layout! Learn more

10-Day Weather Forecast

Advertisements
Track Severe Weather on mobile